Terminal Aerodrome Forecast
Issued by NWS

Home | Current Version | Previous Version | Text Only | Print | Product List | Glossary On
Versions: 1 2 3 4 5 6 7 8 9 10 11 12
000
FTAK31 PAJN 011100
TAFAGY
TAF
PAGY 011120Z 0112/0212 20008KT P6SM SCT050 BKN070
     FM020000 21003KT P6SM VCSH BKN050 OVC100
     FM020600 20005KT P6SM -RA SCT030 OVC050
      AMD LTD TO CLD VIS AND WIND=

USA.gov is the U.S. government's official web portal to all federal, state and local government web resources and services.